sensor_id;sensor_type;location;lat;lon;timestamp;pressure;altitude;pressure_sealevel;temperature;humidity
43934;BME280;59081;42.706;23.306;2023-04-07T00:02:06;94914.97;;;0.98;60.25
43934;BME280;59081;42.706;23.306;2023-04-07T00:04:32;94794.97;;;0.18;59.83
43934;BME280;59081;42.706;23.306;2023-04-07T00:06:58;94703.06;;;-0.29;59.83
43934;BME280;59081;42.706;23.306;2023-04-07T00:09:26;94928.19;;;1.11;60.09
43934;BME280;59081;42.706;23.306;2023-04-07T00:11:59;94703.78;;;-0.40;60.06
43934;BME280;59081;42.706;23.306;2023-04-07T00:14:28;94638.97;;;-0.84;59.91
43934;BME280;59081;42.706;23.306;2023-04-07T00:16:56;94812.53;;;0.46;59.26
43934;BME280;59081;42.706;23.306;2023-04-07T00:19:25;94659.28;;;-0.53;59.43
43934;BME280;59081;42.706;23.306;2023-04-07T00:21:51;94762.00;;;0.02;59.51
43934;BME280;59081;42.706;23.306;2023-04-07T00:24:20;94780.19;;;0.02;60.21
43934;BME280;59081;42.706;23.306;2023-04-07T00:26:48;94867.19;;;0.65;59.50
43934;BME280;59081;42.706;23.306;2023-04-07T00:29:15;94665.47;;;-0.52;59.16
43934;BME280;59081;42.706;23.306;2023-04-07T00:31:41;94744.59;;;-0.04;59.67
43934;BME280;59081;42.706;23.306;2023-04-07T00:34:07;94695.69;;;-0.36;59.80
43934;BME280;59081;42.706;23.306;2023-04-07T00:36:32;94985.25;;;1.32;60.11
43934;BME280;59081;42.706;23.306;2023-04-07T00:39:07;94735.63;;;-0.15;59.54
43934;BME280;59081;42.706;23.306;2023-04-07T00:41:35;94936.72;;;1.09;59.28
43934;BME280;59081;42.706;23.306;2023-04-07T00:44:01;94705.69;;;-0.44;59.47
43934;BME280;59081;42.706;23.306;2023-04-07T00:46:27;94736.72;;;-0.27;59.35
43934;BME280;59081;42.706;23.306;2023-04-07T00:48:52;94756.78;;;-0.31;60.17
43934;BME280;59081;42.706;23.306;2023-04-07T00:51:27;94985.59;;;1.20;62.38
43934;BME280;59081;42.706;23.306;2023-04-07T00:53:56;94866.13;;;0.12;65.21
43934;BME280;59081;42.706;23.306;2023-04-07T00:56:29;94832.56;;;-0.31;68.22
43934;BME280;59081;42.706;23.306;2023-04-07T00:58:55;94708.38;;;-1.46;69.40
43934;BME280;59081;42.706;23.306;2023-04-07T01:07:30;94697.59;;;-1.46;69.40
43934;BME280;59081;42.706;23.306;2023-04-07T01:10:08;94697.03;;;-1.62;69.82
43934;BME280;59081;42.706;23.306;2023-04-07T01:12:58;94917.84;;;-0.08;69.26
43934;BME280;59081;42.706;23.306;2023-04-07T01:15:29;94901.53;;;-0.15;70.05
43934;BME280;59081;42.706;23.306;2023-04-07T01:18:20;94717.72;;;-1.36;69.93
43934;BME280;59081;42.706;23.306;2023-04-07T01:20:49;94851.28;;;-0.60;71.23
43934;BME280;59081;42.706;23.306;2023-04-07T01:26:19;94767.72;;;-1.53;77.19
43934;BME280;59081;42.706;23.306;2023-04-07T01:31:40;94876.56;;;-0.82;78.40
43934;BME280;59081;42.706;23.306;2023-04-07T01:34:09;94812.91;;;-1.50;79.27
43934;BME280;59081;42.706;23.306;2023-04-07T01:36:40;94849.31;;;-1.41;79.76
43934;BME280;59081;42.706;23.306;2023-04-07T01:39:12;94910.13;;;-0.90;80.61
43934;BME280;59081;42.706;23.306;2023-04-07T01:41:39;94642.72;;;-2.61;79.92
43934;BME280;59081;42.706;23.306;2023-04-07T01:44:09;94837.13;;;-1.27;79.93
43934;BME280;59081;42.706;23.306;2023-04-07T01:46:37;94693.19;;;-2.32;80.75
43934;BME280;59081;42.706;23.306;2023-04-07T01:49:15;94964.53;;;-0.58;80.38
43934;BME280;59081;42.706;23.306;2023-04-07T01:51:44;94746.84;;;-1.93;79.50
43934;BME280;59081;42.706;23.306;2023-04-07T01:54:15;94666.38;;;-2.48;80.61
43934;BME280;59081;42.706;23.306;2023-04-07T01:56:45;94887.50;;;-1.09;81.33
43934;BME280;59081;42.706;23.306;2023-04-07T01:59:14;94959.81;;;-0.65;81.87
43934;BME280;59081;42.706;23.306;2023-04-07T02:01:46;94843.88;;;-1.44;82.01
43934;BME280;59081;42.706;23.306;2023-04-07T02:07:20;94731.75;;;-1.98;81.75
43934;BME280;59081;42.706;23.306;2023-04-07T02:09:50;94881.06;;;-0.97;82.40
43934;BME280;59081;42.706;23.306;2023-04-07T02:15:07;94955.91;;;-0.71;83.89
43934;BME280;59081;42.706;23.306;2023-04-07T02:17:39;94953.63;;;-0.65;84.57
43934;BME280;59081;42.706;23.306;2023-04-07T02:20:07;94904.00;;;-0.84;83.92
43934;BME280;59081;42.706;23.306;2023-04-07T02:22:38;94772.91;;;-1.74;83.82
43934;BME280;59081;42.706;23.306;2023-04-07T02:25:26;94946.25;;;-0.68;85.22
43934;BME280;59081;42.706;23.306;2023-04-07T02:27:52;94624.06;;;-2.73;84.53
43934;BME280;59081;42.706;23.306;2023-04-07T02:30:19;94819.38;;;-1.25;83.52
43934;BME280;59081;42.706;23.306;2023-04-07T02:32:48;94675.13;;;-2.24;83.50
43934;BME280;59081;42.706;23.306;2023-04-07T02:35:19;94956.16;;;-0.46;83.85
43934;BME280;59081;42.706;23.306;2023-04-07T02:37:45;94628.81;;;-2.63;83.06
43934;BME280;59081;42.706;23.306;2023-04-07T02:40:11;94731.75;;;-1.98;83.05
43934;BME280;59081;42.706;23.306;2023-04-07T02:42:41;94744.00;;;-1.74;82.29
43934;BME280;59081;42.706;23.306;2023-04-07T02:45:17;94673.31;;;-2.17;81.73
43934;BME280;59081;42.706;23.306;2023-04-07T02:47:42;94611.56;;;-2.55;82.01
43934;BME280;59081;42.706;23.306;2023-04-07T02:50:11;94777.22;;;-1.66;82.41
43934;BME280;59081;42.706;23.306;2023-04-07T02:52:40;94691.53;;;-2.10;81.53
43934;BME280;59081;42.706;23.306;2023-04-07T02:55:11;94709.84;;;-1.89;81.31
43934;BME280;59081;42.706;23.306;2023-04-07T02:57:39;94651.41;;;-2.12;80.20
43934;BME280;59081;42.706;23.306;2023-04-07T03:00:05;94773.44;;;-1.25;80.34
43934;BME280;59081;42.706;23.306;2023-04-07T03:02:33;94786.88;;;-1.32;80.82
43934;BME280;59081;42.706;23.306;2023-04-07T03:05:02;94941.97;;;-0.36;81.19
43934;BME280;59081;42.706;23.306;2023-04-07T03:07:28;94836.69;;;-0.92;80.47
43934;BME280;59081;42.706;23.306;2023-04-07T03:10:02;94861.22;;;-0.75;80.23
43934;BME280;59081;42.706;23.306;2023-04-07T03:12:30;94909.75;;;-0.48;81.10
43934;BME280;59081;42.706;23.306;2023-04-07T03:14:55;94963.78;;;-0.18;82.33
43934;BME280;59081;42.706;23.306;2023-04-07T03:17:24;94640.88;;;-2.20;81.39
43934;BME280;59081;42.706;23.306;2023-04-07T03:19:57;94947.25;;;-0.06;81.51
43934;BME280;59081;42.706;23.306;2023-04-07T03:22:25;94690.00;;;-1.70;81.17
43934;BME280;59081;42.706;23.306;2023-04-07T03:24:51;94796.50;;;-0.94;78.88
43934;BME280;59081;42.706;23.306;2023-04-07T03:27:17;94713.66;;;-1.60;79.37
43934;BME280;59081;42.706;23.306;2023-04-07T03:30:01;94901.53;;;-0.18;72.35
43934;BME280;59081;42.706;23.306;2023-04-07T03:32:33;94903.81;;;0.34;69.87
43934;BME280;59081;42.706;23.306;2023-04-07T03:34:59;94812.56;;;-0.16;69.39
43934;BME280;59081;42.706;23.306;2023-04-07T03:37:28;94732.59;;;-0.65;65.22
43934;BME280;59081;42.706;23.306;2023-04-07T03:39:54;94639.72;;;-0.94;61.48
43934;BME280;59081;42.706;23.306;2023-04-07T03:42:25;94796.19;;;0.35;60.20
43934;BME280;59081;42.706;23.306;2023-04-07T03:44:51;94815.31;;;0.63;59.58
43934;BME280;59081;42.706;23.306;2023-04-07T03:47:20;94691.97;;;-0.07;57.96
43934;BME280;59081;42.706;23.306;2023-04-07T03:49:49;94802.13;;;0.62;60.51
43934;BME280;59081;42.706;23.306;2023-04-07T03:52:20;94663.03;;;-0.68;67.16
43934;BME280;59081;42.706;23.306;2023-04-07T03:54:58;94976.44;;;0.73;71.62
43934;BME280;59081;42.706;23.306;2023-04-07T03:57:26;94778.97;;;-0.70;73.91
43934;BME280;59081;42.706;23.306;2023-04-07T04:00:01;94842.94;;;-0.41;75.18
43934;BME280;59081;42.706;23.306;2023-04-07T04:02:31;94642.75;;;-1.91;77.07
43934;BME280;59081;42.706;23.306;2023-04-07T04:04:59;94666.59;;;-1.96;78.17
43934;BME280;59081;42.706;23.306;2023-04-07T04:07:25;94731.44;;;-1.56;78.88
43934;BME280;59081;42.706;23.306;2023-04-07T04:09:54;94921.22;;;-0.21;78.70
43934;BME280;59081;42.706;23.306;2023-04-07T04:12:21;94813.16;;;-0.92;79.36
43934;BME280;59081;42.706;23.306;2023-04-07T04:14:50;94981.00;;;0.07;80.66
43934;BME280;59081;42.706;23.306;2023-04-07T04:17:16;94646.06;;;-2.08;80.66
43934;BME280;59081;42.706;23.306;2023-04-07T04:19:44;94823.63;;;-0.83;80.93
43934;BME280;59081;42.706;23.306;2023-04-07T04:22:12;94761.81;;;-1.29;79.68
43934;BME280;59081;42.706;23.306;2023-04-07T04:24:45;94932.06;;;-0.18;80.23
43934;BME280;59081;42.706;23.306;2023-04-07T04:27:21;94846.78;;;-0.86;80.98
43934;BME280;59081;42.706;23.306;2023-04-07T04:29:53;94829.75;;;-0.93;81.16
43934;BME280;59081;42.706;23.306;2023-04-07T04:32:22;94890.78;;;-0.52;80.81
43934;BME280;59081;42.706;23.306;2023-04-07T04:35:09;95010.66;;;0.33;79.53
43934;BME280;59081;42.706;23.306;2023-04-07T04:37:54;94987.03;;;0.34;78.82
43934;BME280;59081;42.706;23.306;2023-04-07T04:40:20;94728.06;;;-1.46;79.17
43934;BME280;59081;42.706;23.306;2023-04-07T04:42:48;94718.66;;;-1.62;79.75
43934;BME280;59081;42.706;23.306;2023-04-07T04:45:14;94899.09;;;-0.30;80.03
43934;BME280;59081;42.706;23.306;2023-04-07T04:47:40;94753.72;;;-1.29;79.48
43934;BME280;59081;42.706;23.306;2023-04-07T04:50:09;95022.63;;;0.32;79.67
43934;BME280;59081;42.706;23.306;2023-04-07T04:52:43;94912.13;;;-0.43;80.08
43934;BME280;59081;42.706;23.306;2023-04-07T04:55:13;94892.28;;;-0.58;80.97
43934;BME280;59081;42.706;23.306;2023-04-07T04:57:39;94765.91;;;-1.46;81.44
43934;BME280;59081;42.706;23.306;2023-04-07T05:00:06;94849.78;;;-0.98;81.38
43934;BME280;59081;42.706;23.306;2023-04-07T05:02:38;94825.00;;;-1.03;81.16
43934;BME280;59081;42.706;23.306;2023-04-07T05:05:05;94857.78;;;-1.09;81.54
43934;BME280;59081;42.706;23.306;2023-04-07T05:07:33;94771.69;;;-1.07;82.30
43934;BME280;59081;42.706;23.306;2023-04-07T05:10:02;94724.09;;;-1.55;79.95
43934;BME280;59081;42.706;23.306;2023-04-07T05:12:29;95030.13;;;0.50;79.89
43934;BME280;59081;42.706;23.306;2023-04-07T05:14:54;94938.31;;;-0.10;79.59
43934;BME280;59081;42.706;23.306;2023-04-07T05:17:23;94956.44;;;-0.14;79.66
43934;BME280;59081;42.706;23.306;2023-04-07T05:19:49;94922.63;;;-0.35;79.51
43934;BME280;59081;42.706;23.306;2023-04-07T05:22:20;94822.44;;;-0.89;78.73
43934;BME280;59081;42.706;23.306;2023-04-07T05:24:46;94932.31;;;0.18;77.73
43934;BME280;59081;42.706;23.306;2023-04-07T05:27:12;94994.19;;;0.60;77.34
43934;BME280;59081;42.706;23.306;2023-04-07T05:29:38;94924.59;;;0.20;78.02
43934;BME280;59081;42.706;23.306;2023-04-07T05:32:06;94709.66;;;-1.33;77.01
43934;BME280;59081;42.706;23.306;2023-04-07T05:34:37;94804.81;;;-0.69;75.49
43934;BME280;59081;42.706;23.306;2023-04-07T05:37:07;94890.78;;;-0.04;74.81
43934;BME280;59081;42.706;23.306;2023-04-07T05:39:33;94766.44;;;-0.85;74.57
43934;BME280;59081;42.706;23.306;2023-04-07T05:42:01;94946.78;;;0.32;74.28
43934;BME280;59081;42.706;23.306;2023-04-07T05:44:28;94824.00;;;-0.41;73.90
43934;BME280;59081;42.706;23.306;2023-04-07T05:46:59;94802.31;;;-0.44;74.22
43934;BME280;59081;42.706;23.306;2023-04-07T05:49:27;95036.34;;;1.16;73.98
43934;BME280;59081;42.706;23.306;2023-04-07T05:51:58;94842.00;;;-0.11;73.42
43934;BME280;59081;42.706;23.306;2023-04-07T05:54:36;95033.22;;;1.14;73.90
43934;BME280;59081;42.706;23.306;2023-04-07T05:57:04;94820.31;;;-0.18;72.66
43934;BME280;59081;42.706;23.306;2023-04-07T05:59:34;94785.38;;;-0.38;72.24
43934;BME280;59081;42.706;23.306;2023-04-07T06:02:04;94809.44;;;-0.25;71.71
43934;BME280;59081;42.706;23.306;2023-04-07T06:04:48;94843.72;;;0.15;71.23
43934;BME280;59081;42.706;23.306;2023-04-07T06:07:20;94933.88;;;0.81;71.38
43934;BME280;59081;42.706;23.306;2023-04-07T06:09:46;94935.00;;;0.73;70.83
43934;BME280;59081;42.706;23.306;2023-04-07T06:12:14;94818.25;;;0.26;69.79
43934;BME280;59081;42.706;23.306;2023-04-07T06:14:43;94913.06;;;1.10;68.58
43934;BME280;59081;42.706;23.306;2023-04-07T06:17:09;94920.09;;;1.28;68.57
43934;BME280;59081;42.706;23.306;2023-04-07T06:19:35;94762.53;;;0.32;67.36
43934;BME280;59081;42.706;23.306;2023-04-07T06:22:03;94769.94;;;0.46;67.58
43934;BME280;59081;42.706;23.306;2023-04-07T06:24:32;94981.88;;;1.70;67.28
43934;BME280;59081;42.706;23.306;2023-04-07T06:27:04;95029.69;;;2.53;66.09
43934;BME280;59081;42.706;23.306;2023-04-07T06:29:36;94916.31;;;1.97;65.38
43934;BME280;59081;42.706;23.306;2023-04-07T06:32:01;94827.09;;;1.35;66.60
43934;BME280;59081;42.706;23.306;2023-04-07T06:34:30;94781.72;;;1.25;65.61
43934;BME280;59081;42.706;23.306;2023-04-07T06:36:56;94812.38;;;1.50;64.30
43934;BME280;59081;42.706;23.306;2023-04-07T06:39:32;94797.63;;;1.58;63.41
43934;BME280;59081;42.706;23.306;2023-04-07T06:42:05;94737.94;;;1.19;62.88
43934;BME280;59081;42.706;23.306;2023-04-07T06:44:30;94873.59;;;2.33;67.35
43934;BME280;59081;42.706;23.306;2023-04-07T06:47:02;94941.34;;;3.14;61.96
43934;BME280;59081;42.706;23.306;2023-04-07T06:49:28;94779.72;;;1.93;62.65
43934;BME280;59081;42.706;23.306;2023-04-07T06:51:54;95031.59;;;4.04;61.64
43934;BME280;59081;42.706;23.306;2023-04-07T06:54:20;95000.25;;;3.64;60.31
43934;BME280;59081;42.706;23.306;2023-04-07T06:56:46;94943.38;;;2.93;61.12
43934;BME280;59081;42.706;23.306;2023-04-07T06:59:15;94726.22;;;1.75;61.16
43934;BME280;59081;42.706;23.306;2023-04-07T07:01:40;94774.16;;;2.42;60.65
43934;BME280;59081;42.706;23.306;2023-04-07T07:04:15;94913.75;;;3.12;61.38
43934;BME280;59081;42.706;23.306;2023-04-07T07:06:47;95029.63;;;4.08;61.10
43934;BME280;59081;42.706;23.306;2023-04-07T07:09:15;95040.59;;;4.52;58.17
43934;BME280;59081;42.706;23.306;2023-04-07T07:11:44;94890.91;;;3.65;57.75
43934;BME280;59081;42.706;23.306;2023-04-07T07:14:10;95050.56;;;4.73;53.93
43934;BME280;59081;42.706;23.306;2023-04-07T07:16:35;94911.13;;;4.19;48.69
43934;BME280;59081;42.706;23.306;2023-04-07T07:19:01;94942.59;;;4.31;47.99
43934;BME280;59081;42.706;23.306;2023-04-07T07:21:30;94775.25;;;3.29;46.83
43934;BME280;59081;42.706;23.306;2023-04-07T07:23:58;94797.84;;;3.22;47.22
43934;BME280;59081;42.706;23.306;2023-04-07T07:26:26;94967.81;;;4.42;47.73
43934;BME280;59081;42.706;23.306;2023-04-07T07:28:52;94750.03;;;3.18;46.98
43934;BME280;59081;42.706;23.306;2023-04-07T07:31:18;94761.03;;;3.55;46.75
43934;BME280;59081;42.706;23.306;2023-04-07T07:33:43;95057.34;;;5.40;45.46
43934;BME280;59081;42.706;23.306;2023-04-07T07:36:11;94919.47;;;4.50;46.43
43934;BME280;59081;42.706;23.306;2023-04-07T07:38:37;94758.31;;;3.55;45.66
43934;BME280;59081;42.706;23.306;2023-04-07T07:41:05;94886.34;;;4.48;45.75
43934;BME280;59081;42.706;23.306;2023-04-07T07:43:33;95052.06;;;5.22;45.61
43934;BME280;59081;42.706;23.306;2023-04-07T07:46:03;94963.19;;;4.80;46.28
43934;BME280;59081;42.706;23.306;2023-04-07T07:48:33;95049.72;;;5.62;45.52
43934;BME280;59081;42.706;23.306;2023-04-07T07:51:01;94766.00;;;3.64;44.59
43934;BME280;59081;42.706;23.306;2023-04-07T07:53:30;95067.00;;;5.52;45.19
43934;BME280;59081;42.706;23.306;2023-04-07T07:55:58;94860.72;;;4.38;44.85
43934;BME280;59081;42.706;23.306;2023-04-07T08:00:59;94903.19;;;4.77;43.85
43934;BME280;59081;42.706;23.306;2023-04-07T08:03:25;95014.72;;;5.50;44.47
43934;BME280;59081;42.706;23.306;2023-04-07T08:05:51;94954.25;;;5.17;44.75
43934;BME280;59081;42.706;23.306;2023-04-07T08:08:37;94991.91;;;5.33;44.21
43934;BME280;59081;42.706;23.306;2023-04-07T08:11:12;94815.50;;;4.03;44.14
43934;BME280;59081;42.706;23.306;2023-04-07T08:13:38;94850.53;;;4.46;43.39
43934;BME280;59081;42.706;23.306;2023-04-07T08:16:04;94840.88;;;4.72;43.80
43934;BME280;59081;42.706;23.306;2023-04-07T08:18:39;94970.56;;;5.85;42.42
43934;BME280;59081;42.706;23.306;2023-04-07T08:21:05;94801.22;;;4.64;43.17
43934;BME280;59081;42.706;23.306;2023-04-07T08:23:40;95043.25;;;6.13;43.16
43934;BME280;59081;42.706;23.306;2023-04-07T08:26:09;94966.19;;;5.61;43.08
43934;BME280;59081;42.706;23.306;2023-04-07T08:28:35;94777.09;;;4.28;43.53
43934;BME280;59081;42.706;23.306;2023-04-07T08:31:01;94996.03;;;5.45;44.82
43934;BME280;59081;42.706;23.306;2023-04-07T08:33:26;94786.50;;;4.20;44.49
43934;BME280;59081;42.706;23.306;2023-04-07T08:35:52;94806.38;;;4.88;43.42
43934;BME280;59081;42.706;23.306;2023-04-07T08:38:21;94815.63;;;4.98;43.18
43934;BME280;59081;42.706;23.306;2023-04-07T08:58:53;94775.72;;;5.35;40.85
43934;BME280;59081;42.706;23.306;2023-04-07T09:01:20;94911.38;;;6.25;43.78
43934;BME280;59081;42.706;23.306;2023-04-07T09:03:47;94969.94;;;6.55;40.91
43934;BME280;59081;42.706;23.306;2023-04-07T09:06:16;95064.94;;;7.05;40.72
43934;BME280;59081;42.706;23.306;2023-04-07T09:08:51;94798.00;;;5.03;41.23
43934;BME280;59081;42.706;23.306;2023-04-07T09:11:20;94912.16;;;6.03;41.70
43934;BME280;59081;42.706;23.306;2023-04-07T09:13:48;94833.34;;;5.71;41.14
43934;BME280;59081;42.706;23.306;2023-04-07T09:16:15;95053.28;;;7.44;41.50
43934;BME280;59081;42.706;23.306;2023-04-07T09:18:44;94842.72;;;6.20;41.30
43934;BME280;59081;42.706;23.306;2023-04-07T09:21:12;94926.72;;;6.89;39.91
43934;BME280;59081;42.706;23.306;2023-04-07T09:23:48;95036.22;;;7.95;39.83
43934;BME280;59081;42.706;23.306;2023-04-07T09:28:46;94798.84;;;6.47;38.94
43934;BME280;59081;42.706;23.306;2023-04-07T09:31:15;94818.31;;;6.72;38.88
43934;BME280;59081;42.706;23.306;2023-04-07T09:33:42;94783.38;;;6.17;39.48
43934;BME280;59081;42.706;23.306;2023-04-07T09:36:08;94886.44;;;6.67;38.66
43934;BME280;59081;42.706;23.306;2023-04-07T09:38:44;95068.06;;;7.89;39.31
43934;BME280;59081;42.706;23.306;2023-04-07T09:41:15;95058.47;;;8.17;38.90
43934;BME280;59081;42.706;23.306;2023-04-07T09:43:45;95001.78;;;7.75;38.85
43934;BME280;59081;42.706;23.306;2023-04-07T09:46:18;95053.22;;;8.07;39.20
43934;BME280;59081;42.706;23.306;2023-04-07T09:48:45;95076.94;;;7.77;39.43
43934;BME280;59081;42.706;23.306;2023-04-07T09:51:14;95065.19;;;7.77;39.83
43934;BME280;59081;42.706;23.306;2023-04-07T09:53:46;94922.69;;;6.51;40.70
43934;BME280;59081;42.706;23.306;2023-04-07T09:56:16;94869.47;;;6.32;40.80
43934;BME280;59081;42.706;23.306;2023-04-07T09:58:49;94952.78;;;7.17;39.95
43934;BME280;59081;42.706;23.306;2023-04-07T10:01:19;94898.19;;;6.87;40.28
43934;BME280;59081;42.706;23.306;2023-04-07T10:03:45;95087.88;;;7.97;39.97
43934;BME280;59081;42.706;23.306;2023-04-07T10:06:12;94936.75;;;6.96;39.93
43934;BME280;59081;42.706;23.306;2023-04-07T10:08:42;94830.59;;;5.98;40.71
43934;BME280;59081;42.706;23.306;2023-04-07T10:11:11;95064.53;;;7.69;41.35
43934;BME280;59081;42.706;23.306;2023-04-07T10:13:39;94815.84;;;6.15;40.94
43934;BME280;59081;42.706;23.306;2023-04-07T10:16:06;94946.41;;;6.81;41.34
43934;BME280;59081;42.706;23.306;2023-04-07T10:18:40;94918.16;;;6.41;42.21
43934;BME280;59081;42.706;23.306;2023-04-07T10:21:06;94785.84;;;5.61;42.50
43934;BME280;59081;42.706;23.306;2023-04-07T10:23:46;94807.78;;;5.81;42.16
43934;BME280;59081;42.706;23.306;2023-04-07T10:26:22;94988.06;;;6.69;42.19
43934;BME280;59081;42.706;23.306;2023-04-07T10:28:56;94843.91;;;5.96;41.87
43934;BME280;59081;42.706;23.306;2023-04-07T10:31:25;94925.78;;;6.53;43.75
43934;BME280;59081;42.706;23.306;2023-04-07T10:33:52;94828.50;;;5.78;44.84
43934;BME280;59081;42.706;23.306;2023-04-07T10:36:21;94926.09;;;6.35;45.17
43934;BME280;59081;42.706;23.306;2023-04-07T10:41:39;94827.72;;;5.28;44.58
43934;BME280;59081;42.706;23.306;2023-04-07T10:44:07;94858.75;;;5.94;44.62
43934;BME280;59081;42.706;23.306;2023-04-07T10:49:15;94832.28;;;5.61;44.38
43934;BME280;59081;42.706;23.306;2023-04-07T10:51:43;95091.41;;;7.34;44.19
43934;BME280;59081;42.706;23.306;2023-04-07T10:54:20;94856.31;;;5.46;45.00
43934;BME280;59081;42.706;23.306;2023-04-07T10:59:32;94841.03;;;6.26;43.39
43934;BME280;59081;42.706;23.306;2023-04-07T11:04:41;94859.97;;;6.17;44.94
43934;BME280;59081;42.706;23.306;2023-04-07T11:07:10;94851.50;;;6.08;44.92
43934;BME280;59081;42.706;23.306;2023-04-07T11:09:45;94841.47;;;6.01;44.92
43934;BME280;59081;42.706;23.306;2023-04-07T11:12:21;94975.22;;;6.89;44.93
43934;BME280;59081;42.706;23.306;2023-04-07T11:14:47;94996.72;;;7.10;43.80
43934;BME280;59081;42.706;23.306;2023-04-07T11:17:13;94848.47;;;6.25;44.56
43934;BME280;59081;42.706;23.306;2023-04-07T11:19:52;94836.63;;;6.09;44.77
43934;BME280;59081;42.706;23.306;2023-04-07T11:22:18;94833.47;;;5.87;45.05
43934;BME280;59081;42.706;23.306;2023-04-07T11:24:49;94881.34;;;6.45;44.43
43934;BME280;59081;42.706;23.306;2023-04-07T11:27:15;94858.88;;;6.34;44.27
43934;BME280;59081;42.706;23.306;2023-04-07T11:29:41;94959.44;;;6.96;45.15
43934;BME280;59081;42.706;23.306;2023-04-07T11:32:07;94837.81;;;6.08;45.42
43934;BME280;59081;42.706;23.306;2023-04-07T11:34:34;94874.28;;;6.48;45.47
43934;BME280;59081;42.706;23.306;2023-04-07T11:37:22;94831.91;;;6.56;43.96
43934;BME280;59081;42.706;23.306;2023-04-07T11:39:56;94868.59;;;6.58;43.67
43934;BME280;59081;42.706;23.306;2023-04-07T11:42:35;95099.16;;;8.02;44.14
43934;BME280;59081;42.706;23.306;2023-04-07T11:45:01;94907.56;;;6.66;45.14
43934;BME280;59081;42.706;23.306;2023-04-07T11:47:39;95102.03;;;8.15;44.40
43934;BME280;59081;42.706;23.306;2023-04-07T11:50:05;94938.88;;;7.08;44.63
43934;BME280;59081;42.706;23.306;2023-04-07T11:52:47;94973.16;;;6.93;44.80
43934;BME280;59081;42.706;23.306;2023-04-07T11:55:20;94990.56;;;6.83;46.61
43934;BME280;59081;42.706;23.306;2023-04-07T11:57:49;94852.94;;;6.16;46.24
43934;BME280;59081;42.706;23.306;2023-04-07T12:00:16;95010.63;;;7.62;45.66
43934;BME280;59081;42.706;23.306;2023-04-07T12:02:42;94941.19;;;7.29;45.11
43934;BME280;59081;42.706;23.306;2023-04-07T12:05:08;94853.75;;;6.99;44.92
43934;BME280;59081;42.706;23.306;2023-04-07T12:07:37;94995.22;;;8.24;44.49
43934;BME280;59081;42.706;23.306;2023-04-07T12:10:22;95025.50;;;8.89;43.05
43934;BME280;59081;42.706;23.306;2023-04-07T12:12:49;95004.13;;;8.48;42.49
43934;BME280;59081;42.706;23.306;2023-04-07T12:15:16;94844.50;;;7.49;43.65
43934;BME280;59081;42.706;23.306;2023-04-07T12:17:48;94855.06;;;7.30;43.08
43934;BME280;59081;42.706;23.306;2023-04-07T12:20:15;94853.38;;;7.37;42.93
43934;BME280;59081;42.706;23.306;2023-04-07T12:22:41;95049.53;;;8.85;42.72
43934;BME280;59081;42.706;23.306;2023-04-07T12:25:07;94941.84;;;7.93;43.66
43934;BME280;59081;42.706;23.306;2023-04-07T12:27:32;94929.78;;;8.07;46.46
43934;BME280;59081;42.706;23.306;2023-04-07T12:29:58;94962.69;;;8.75;43.32
43934;BME280;59081;42.706;23.306;2023-04-07T12:32:24;94859.16;;;8.43;41.90
43934;BME280;59081;42.706;23.306;2023-04-07T12:34:50;94918.81;;;8.23;41.76
43934;BME280;59081;42.706;23.306;2023-04-07T12:37:16;94843.94;;;7.02;42.80
43934;BME280;59081;42.706;23.306;2023-04-07T12:39:41;95080.41;;;8.73;43.17
43934;BME280;59081;42.706;23.306;2023-04-07T12:42:07;95032.38;;;8.81;43.03
43934;BME280;59081;42.706;23.306;2023-04-07T12:44:38;95094.34;;;9.47;42.73
43934;BME280;59081;42.706;23.306;2023-04-07T12:47:06;94827.00;;;8.11;42.51
43934;BME280;59081;42.706;23.306;2023-04-07T12:49:35;94850.06;;;8.30;40.52
43934;BME280;59081;42.706;23.306;2023-04-07T12:52:03;94849.63;;;8.48;40.83
43934;BME280;59081;42.706;23.306;2023-04-07T12:54:31;95015.06;;;9.87;40.33
43934;BME280;59081;42.706;23.306;2023-04-07T12:57:00;95087.00;;;10.02;40.43
43934;BME280;59081;42.706;23.306;2023-04-07T12:59:26;94872.53;;;8.09;41.51
43934;BME280;59081;42.706;23.306;2023-04-07T13:01:55;94861.69;;;7.85;42.07
43934;BME280;59081;42.706;23.306;2023-04-07T13:04:21;95017.59;;;9.07;41.81
43934;BME280;59081;42.706;23.306;2023-04-07T13:07:07;95099.22;;;9.56;41.88
43934;BME280;59081;42.706;23.306;2023-04-07T13:09:42;94933.38;;;8.20;42.33
43934;BME280;59081;42.706;23.306;2023-04-07T13:12:09;94967.69;;;7.56;44.23
43934;BME280;59081;42.706;23.306;2023-04-07T13:14:39;94912.06;;;7.19;44.38
43934;BME280;59081;42.706;23.306;2023-04-07T13:17:05;94841.31;;;6.94;44.08
43934;BME280;59081;42.706;23.306;2023-04-07T13:19:31;94954.13;;;7.49;44.98
43934;BME280;59081;42.706;23.306;2023-04-07T13:22:06;94863.38;;;6.87;45.40
43934;BME280;59081;42.706;23.306;2023-04-07T13:24:37;94982.88;;;7.60;45.10
43934;BME280;59081;42.706;23.306;2023-04-07T13:27:04;94893.72;;;7.16;44.34
43934;BME280;59081;42.706;23.306;2023-04-07T13:29:30;94938.75;;;7.35;44.59
43934;BME280;59081;42.706;23.306;2023-04-07T13:32:08;95102.66;;;8.23;45.71
43934;BME280;59081;42.706;23.306;2023-04-07T13:34:35;94834.75;;;6.06;46.75
43934;BME280;59081;42.706;23.306;2023-04-07T13:37:02;94968.47;;;7.37;45.97
43934;BME280;59081;42.706;23.306;2023-04-07T13:39:32;95028.34;;;7.58;45.78
43934;BME280;59081;42.706;23.306;2023-04-07T13:42:00;94876.19;;;6.27;47.00
43934;BME280;59081;42.706;23.306;2023-04-07T13:44:26;94854.00;;;5.99;47.51
43934;BME280;59081;42.706;23.306;2023-04-07T13:46:54;94885.88;;;6.55;46.48
43934;BME280;59081;42.706;23.306;2023-04-07T13:49:19;94999.88;;;7.52;45.61
43934;BME280;59081;42.706;23.306;2023-04-07T13:51:46;95038.53;;;7.38;47.23
43934;BME280;59081;42.706;23.306;2023-04-07T13:54:11;94971.06;;;6.81;47.44
43934;BME280;59081;42.706;23.306;2023-04-07T13:56:37;95126.41;;;7.70;47.49
43934;BME280;59081;42.706;23.306;2023-04-07T13:59:09;95020.91;;;7.15;47.77
43934;BME280;59081;42.706;23.306;2023-04-07T14:01:38;94898.25;;;6.17;48.20